VDSR Airport Information

Runway Information
Runway 05 Length 8366 ft width 148 ft
Elevation 51 ft Threshold 0 ft Heading 48
Runway 23 Length 8366 ft Width 148 ft
Elevation 60 ft Threshold 0 ft Heading 228
Airport Frequencies
Type APP Name APP Frequency 124.3 MHZ
Type ATIS Name ATIS Frequency 129.95 MHZ
Type TWR Name TWR Frequency 118.5 MHZ
Airport Navaids
Type NDB Name Siem Reap Frequency 441 KHZ
Type VOR-DME Name Siem Reap Frequency 113800 KHZ
Airport Weather Information & NOTAM
ADDS - METARS form results

(0126 UTC 17 June 2019)
Data provider http://aviationweather.gov/metar/data/
 
METAR text: VDSR 170100Z 19002KT 9999 SCT015 BKN050 28/25 Q1007
Conditions at: VDSR (SIEMREAP , KH) observed 0100 UTC 17 June 2019
Temperature: 28.0°C (82°F)
Dewpoint: 25.0°C (77°F) [RH = 84%]
Pressure (altimeter): 29.73 inches Hg (1007.0 mb)
Winds: from the S (190 degrees) at 2 MPH (2 knots; 1.0 m/s)
Visibility: 6 or more miles (10+ km)
Ceiling: 5000 feet AGL
Clouds: scattered clouds at 1500 feet AGL
broken clouds at 5000 feet AGL
Weather: no significant weather observed at this time

METAR text: VDSR 170030Z 19002KT 9999 SCT015 BKN050 27/25 Q1007
Conditions at: VDSR (SIEMREAP , KH) observed 0030 UTC 17 June 2019
Temperature: 27.0°C (81°F)
Dewpoint: 25.0°C (77°F) [RH = 89%]
Pressure (altimeter): 29.73 inches Hg (1007.0 mb)
Winds: from the S (190 degrees) at 2 MPH (2 knots; 1.0 m/s)
Visibility: 6 or more miles (10+ km)
Ceiling: 5000 feet AGL
Clouds: scattered clouds at 1500 feet AGL
broken clouds at 5000 feet AGL
Weather: no significant weather observed at this time

Forecast for: VDSR (SIEMREAP , KH)
Text: TAF VDSR 162300Z 1700/1718 21009KT 9999 SCT017 SCT040
Forecast period: 0000 to 1800 UTC 17 June 2019
Forecast type: FROM: standard forecast or significant change
Winds: from the SSW (210 degrees) at 10 MPH (9 knots; 4.6 m/s)
Visibility: 6 or more miles 10+ km)
Ceiling: at least 12,000 feet AGL
Clouds: scattered clouds at 1700 feet AGL
scattered clouds at 4000 feet AGL
Weather: no significant weather forecast for this period
Text: TEMPO 1706/1711 5000 TSRA SCT015 FEW017CB SCT040
Forecast period: 0600 to 1100 UTC 17 June 2019
Forecast type: TEMPORARY: The following changes expected for less than half the time period
Visibility: 3 miles (5 km)
Ceiling: at least 12,000 feet AGL
Clouds: scattered clouds at 1500 feet AGL
few clouds at 1700 feet AGL
scattered clouds at 4000 feet AGL
Weather: TSRA  (rain associated with thunderstorm(s))